Time;durP1;ratioP1;P1;durP2;ratioP2;P2;SDS_P1;SDS_P2;PMS_P1;PMS_P2;Temp;Humidity;BMP_temperature;BMP_pressure;BME280_temperature;BME280_humidity;BME280_pressure;Samples;Min_cycle;Max_cycle;Signal;HPM_P1;HPM_P2
2022/03/28 00:02:14;;;;;;;42.42;9.75;;;;;;;5.65;79.12;102723.94;5007517;28;20059;-63
2022/03/28 00:04:39;;;;;;;36.22;8.48;;;;;;;5.53;79.47;102718.81;5007247;28;20053;-62
2022/03/28 00:07:05;;;;;;;37.60;9.15;;;;;;;5.51;79.42;102719.72;5006710;28;20914;-63
2022/03/28 00:09:30;;;;;;;35.90;8.45;;;;;;;5.56;80.45;102709.97;5006317;28;20076;-63
2022/03/28 00:11:56;;;;;;;30.67;8.18;;;;;;;5.69;79.80;102719.50;5006346;28;20048;-64
2022/03/28 00:14:21;;;;;;;49.60;8.85;;;;;;;5.60;79.95;102716.97;4988049;28;20478;-63
2022/03/28 00:16:46;;;;;;;37.40;8.13;;;;;;;5.45;80.22;102710.09;5005100;28;20140;-63
2022/03/28 00:19:12;;;;;;;32.65;8.13;;;;;;;5.37;80.54;102706.66;5005536;28;20054;-63
2022/03/28 00:21:38;;;;;;;42.10;7.93;;;;;;;5.38;80.66;102704.00;4996627;28;20054;-63
2022/03/28 00:24:04;;;;;;;34.90;7.85;;;;;;;5.37;81.46;102698.72;4986841;28;20573;-64
2022/03/28 00:26:31;;;;;;;41.08;8.80;;;;;;;5.31;80.79;102696.16;4986760;28;20135;-64
2022/03/28 00:28:56;;;;;;;33.88;8.75;;;;;;;5.24;81.59;102692.72;4968502;28;20717;-63
2022/03/28 00:31:22;;;;;;;42.85;8.07;;;;;;;5.32;81.45;102689.97;4985963;28;20116;-63
2022/03/28 00:33:48;;;;;;;38.03;9.45;;;;;;;5.19;82.19;102689.25;4951680;28;20070;-63
2022/03/28 00:36:14;;;;;;;37.58;9.38;;;;;;;5.17;82.55;102680.44;4985856;28;20085;-63
2022/03/28 00:38:39;;;;;;;29.73;7.53;;;;;;;5.10;82.20;102681.41;4987086;28;20046;-63
2022/03/28 00:41:04;;;;;;;32.55;8.45;;;;;;;5.10;82.42;102678.75;4968153;28;20053;-63
2022/03/28 00:43:30;;;;;;;37.13;8.23;;;;;;;5.16;83.14;102682.19;4985518;28;20058;-63
2022/03/28 00:45:55;;;;;;;47.53;9.00;;;;;;;5.14;82.81;102677.84;4968763;28;20046;-63
2022/03/28 00:48:21;;;;;;;37.88;8.98;;;;;;;5.08;82.72;102677.91;4986436;28;20046;-63
2022/03/28 00:50:47;;;;;;;36.00;8.25;;;;;;;5.08;83.50;102676.16;4986654;28;20047;-64
2022/03/28 00:53:13;;;;;;;48.63;9.00;;;;;;;5.09;82.73;102684.94;4986732;28;20050;-63
2022/03/28 00:55:39;;;;;;;34.00;8.90;;;;;;;4.98;82.79;102679.78;4984925;28;20038;-63
2022/03/28 00:58:05;;;;;;;37.55;8.55;;;;;;;4.98;82.47;102676.25;4985353;28;20180;-64
2022/03/28 01:00:30;;;;;;;30.50;8.15;;;;;;;5.03;82.63;102675.31;4986368;28;20057;-63
2022/03/28 01:02:57;;;;;;;31.45;7.53;;;;;;;5.13;82.46;102670.81;4984580;28;20057;-63
2022/03/28 01:05:24;;;;;;;41.70;8.48;;;;;;;4.93;82.56;102666.59;4985822;28;20054;-64
2022/03/28 01:07:50;;;;;;;41.88;8.20;;;;;;;4.84;83.20;102665.81;4982442;28;20041;-64
2022/03/28 01:10:15;;;;;;;33.78;7.20;;;;;;;4.89;83.06;102658.72;4982722;28;20042;-62
2022/03/28 01:12:42;;;;;;;41.05;8.52;;;;;;;4.85;83.38;102662.28;4982176;28;20038;-63
2022/03/28 01:15:10;;;;;;;45.33;8.90;;;;;;;4.73;83.90;102652.72;4982158;28;20050;-62
2022/03/28 01:20:23;;;;;;;35.25;9.35;;;;;;;4.73;84.46;102644.78;4984261;28;20300;-63
2022/03/28 01:22:48;;;;;;;48.30;8.52;;;;;;;4.68;84.63;102639.56;5000821;28;20042;-63
2022/03/28 01:25:22;;;;;;;35.95;8.45;;;;;;;4.66;85.02;102641.31;5000928;28;20050;-63
2022/03/28 01:27:49;;;;;;;40.10;9.05;;;;;;;4.70;84.83;102641.28;5001843;28;20044;-62
2022/03/28 01:30:14;;;;;;;36.30;8.02;;;;;;;4.58;84.55;102632.59;5001979;28;20063;-62
2022/03/28 01:32:40;;;;;;;37.88;8.95;;;;;;;4.57;84.98;102630.00;5001842;28;20037;-63
2022/03/28 01:35:05;;;;;;;42.65;8.85;;;;;;;4.50;84.66;102621.22;4984298;28;20812;-63
2022/03/28 01:37:31;;;;;;;52.33;9.10;;;;;;;4.48;84.68;102623.03;5001768;28;20042;-64
2022/03/28 01:39:56;;;;;;;36.55;9.18;;;;;;;4.42;85.32;102620.44;5002434;28;20042;-63
2022/03/28 01:42:22;;;;;;;45.92;10.20;;;;;;;4.41;85.45;102621.31;5002501;28;20065;-64
2022/03/28 01:44:51;;;;;;;43.08;9.23;;;;;;;4.44;85.20;102617.78;5002855;28;20570;-65
2022/03/28 01:47:17;;;;;;;39.75;7.65;;;;;;;4.47;84.96;102608.06;5001715;28;20042;-63
2022/03/28 01:49:43;;;;;;;50.75;10.23;;;;;;;4.40;85.25;102607.22;5002518;28;20048;-63
2022/03/28 01:52:08;;;;;;;41.78;8.85;;;;;;;4.46;85.05;102610.69;5001962;28;20513;-63
2022/03/28 01:54:34;;;;;;;55.72;9.63;;;;;;;4.40;85.54;102609.88;5002787;28;20042;-63
2022/03/28 01:56:59;;;;;;;33.38;9.43;;;;;;;4.36;85.40;102615.19;5002187;28;20029;-63
2022/03/28 01:59:24;;;;;;;40.17;8.27;;;;;;;4.32;85.69;102613.50;4999639;28;20042;-63
2022/03/28 02:01:51;;;;;;;43.10;9.27;;;;;;;4.36;85.70;102607.25;4983238;28;20046;-64
2022/03/28 02:04:16;;;;;;;41.75;10.55;;;;;;;4.40;86.25;102603.72;4983107;28;20042;-63
2022/03/28 02:06:41;;;;;;;47.83;9.15;;;;;;;4.33;85.91;102602.03;4983269;28;20042;-63
2022/03/28 02:09:07;;;;;;;59.65;11.35;;;;;;;4.35;86.71;102608.16;5000838;28;20292;-63
2022/03/28 02:11:34;;;;;;;46.78;9.75;;;;;;;4.30;86.33;102596.78;5000544;28;20565;-63
2022/03/28 02:13:59;;;;;;;48.40;9.95;;;;;;;4.24;86.27;102591.53;5000495;28;20056;-63
2022/03/28 02:16:25;;;;;;;48.30;9.57;;;;;;;4.14;86.12;102593.38;4999778;28;20479;-63
2022/03/28 02:18:50;;;;;;;40.95;10.32;;;;;;;4.11;86.19;102583.72;4999311;28;20441;-64
2022/03/28 02:21:16;;;;;;;41.83;10.57;;;;;;;4.13;86.40;102581.97;4994298;28;20080;-63
2022/03/28 02:23:41;;;;;;;29.80;9.38;;;;;;;4.12;86.44;102585.50;4981879;28;20068;-63
2022/03/28 02:26:07;;;;;;;46.80;9.32;;;;;;;4.04;86.47;102575.88;4999925;28;20065;-63
2022/03/28 02:28:33;;;;;;;40.78;9.68;;;;;;;4.04;86.95;102575.88;4982230;28;20055;-63
2022/03/28 02:30:59;;;;;;;39.28;9.90;;;;;;;4.01;86.51;102573.25;5000746;28;20855;-63
2022/03/28 02:33:24;;;;;;;51.67;11.55;;;;;;;4.01;86.97;102571.47;4999827;28;20137;-63
2022/03/28 02:35:51;;;;;;;62.15;10.43;;;;;;;4.05;87.08;102575.84;4999746;28;20048;-65
2022/03/28 02:38:16;;;;;;;50.13;10.27;;;;;;;4.05;87.23;102565.31;4999599;28;20041;-63
2022/03/28 02:40:42;;;;;;;39.85;10.70;;;;;;;3.94;87.32;102563.66;5001126;28;20050;-63
2022/03/28 02:43:07;;;;;;;45.58;10.65;;;;;;;3.87;87.27;102561.06;4982460;28;20050;-63
2022/03/28 02:45:35;;;;;;;48.38;10.18;;;;;;;3.97;87.62;102561.00;5000142;28;20049;-63
2022/03/28 02:48:05;;;;;;;38.28;10.27;;;;;;;3.97;87.16;102564.50;5000780;28;20790;-63
2022/03/28 02:50:32;;;;;;;48.58;11.82;;;;;;;3.88;87.42;102561.94;5001192;28;20835;-63
2022/03/28 02:52:58;;;;;;;56.75;11.38;;;;;;;3.78;87.33;102555.84;5000303;28;20143;-63
2022/03/28 02:55:23;;;;;;;47.67;10.60;;;;;;;3.83;87.47;102550.53;4997987;28;20045;-64
2022/03/28 02:57:49;;;;;;;46.28;11.55;;;;;;;3.84;87.61;102550.53;4999662;28;20454;-63
2022/03/28 03:00:15;;;;;;;42.20;10.80;;;;;;;3.78;87.46;102545.31;4999518;28;20545;-63
2022/03/28 03:02:44;;;;;;;40.78;10.57;;;;;;;3.78;87.74;102540.03;5000165;28;20135;-63
2022/03/28 03:05:11;;;;;;;48.08;11.65;;;;;;;3.74;87.76;102538.28;4998690;28;20060;-66
2022/03/28 03:07:36;;;;;;;51.25;11.65;;;;;;;3.77;87.52;102533.00;5000593;28;20042;-63
2022/03/28 03:10:03;;;;;;;47.95;11.50;;;;;;;3.67;86.76;102530.44;5001410;28;20044;-63
2022/03/28 03:12:28;;;;;;;40.30;11.55;;;;;;;3.59;87.51;102526.09;4983292;28;20627;-64
2022/03/28 03:14:54;;;;;;;46.80;12.07;;;;;;;3.54;87.34;102527.00;5000903;28;20049;-63
2022/03/28 03:17:20;;;;;;;56.53;12.15;;;;;;;3.57;87.32;102524.38;5001234;28;20041;-63
2022/03/28 03:19:45;;;;;;;45.70;12.30;;;;;;;3.53;87.85;102520.88;4999525;28;20046;-63
2022/03/28 03:22:14;;;;;;;44.38;10.48;;;;;;;3.52;87.91;102524.41;4996724;28;20034;-63
2022/03/28 03:24:40;;;;;;;49.35;11.70;;;;;;;3.54;88.24;102509.41;5000379;28;20041;-63
2022/03/28 03:27:06;;;;;;;32.28;10.10;;;;;;;3.41;88.09;102510.38;5000562;28;20117;-63
2022/03/28 03:29:32;;;;;;;46.10;11.90;;;;;;;3.40;88.41;102510.41;5000527;28;20053;-63
2022/03/28 03:31:57;;;;;;;57.42;13.43;;;;;;;3.38;88.39;102508.66;5000152;28;20034;-63
2022/03/28 03:34:23;;;;;;;50.28;12.77;;;;;;;3.36;88.26;102507.81;5000439;28;20763;-63
2022/03/28 03:36:48;;;;;;;49.30;12.57;;;;;;;3.33;87.95;102505.19;4999897;28;20046;-63
2022/03/28 03:39:13;;;;;;;53.13;13.30;;;;;;;3.30;88.54;102504.31;4981950;28;20038;-63
2022/03/28 03:41:39;;;;;;;52.72;13.48;;;;;;;3.25;88.13;102506.97;5000116;28;20115;-63
2022/03/28 03:44:06;;;;;;;44.90;12.38;;;;;;;3.16;88.02;102508.78;5000445;28;20274;-63
2022/03/28 03:46:32;;;;;;;42.15;11.82;;;;;;;3.18;87.92;102512.31;4999422;28;20050;-63
2022/03/28 03:48:57;;;;;;;48.10;12.30;;;;;;;3.25;88.36;102500.84;5000652;28;20074;-63
2022/03/28 03:51:23;;;;;;;45.28;12.65;;;;;;;3.17;88.29;102500.91;4999423;28;20459;-63
2022/03/28 03:53:48;;;;;;;40.75;11.57;;;;;;;3.16;87.92;102499.13;4998405;28;20049;-63
2022/03/28 03:56:13;;;;;;;49.05;13.30;;;;;;;3.15;88.42;102501.78;5001781;28;20141;-64
2022/03/28 03:58:39;;;;;;;40.47;12.13;;;;;;;3.16;88.29;102498.25;5003738;28;20044;-63
2022/03/28 04:01:04;;;;;;;44.70;11.73;;;;;;;3.11;88.35;102500.91;4986059;28;20081;-63
2022/03/28 04:03:32;;;;;;;47.88;12.98;;;;;;;3.06;87.93;102498.31;5002391;28;20038;-65
2022/03/28 04:05:58;;;;;;;41.78;11.85;;;;;;;3.02;87.70;102499.22;5003247;28;20140;-63
2022/03/28 04:08:23;;;;;;;37.85;12.52;;;;;;;3.00;88.29;102500.97;5002917;28;20037;-63
2022/03/28 04:10:49;;;;;;;50.33;12.93;;;;;;;2.94;88.22;102502.78;4984068;28;20379;-63
2022/03/28 04:13:15;;;;;;;51.75;13.55;;;;;;;2.92;88.59;102499.28;4983356;28;20097;-63
2022/03/28 04:15:40;;;;;;;42.05;12.18;;;;;;;2.85;88.12;102503.69;5001026;28;20058;-64
2022/03/28 04:18:06;;;;;;;37.00;13.18;;;;;;;2.85;88.43;102498.41;5000322;28;20072;-66
2022/03/28 04:20:32;;;;;;;50.65;12.30;;;;;;;2.88;88.40;102497.53;5000422;28;20057;-63
2022/03/28 04:22:58;;;;;;;42.50;12.23;;;;;;;2.94;89.00;102500.13;4988904;28;20510;-63
2022/03/28 04:25:23;;;;;;;46.75;13.07;;;;;;;2.92;88.72;102499.28;4999918;28;20056;-64
2022/03/28 04:27:49;;;;;;;49.00;12.98;;;;;;;2.88;88.34;102500.19;4999990;28;20435;-63
2022/03/28 04:30:14;;;;;;;46.75;12.60;;;;;;;2.84;88.35;102501.94;4976627;28;20046;-63
2022/03/28 04:32:40;;;;;;;47.65;13.57;;;;;;;2.77;88.10;102498.47;4999377;28;20038;-63
2022/03/28 04:35:08;;;;;;;41.05;12.25;;;;;;;2.71;88.16;102492.31;4999793;28;20041;-62
2022/03/28 04:37:39;;;;;;;49.88;12.20;;;;;;;2.66;88.41;102492.38;5000408;28;20038;-62
2022/03/28 04:40:08;;;;;;;39.33;11.85;;;;;;;2.66;88.71;102499.38;4999938;28;20042;-63
2022/03/28 04:42:34;;;;;;;38.55;12.95;;;;;;;2.66;87.93;102492.38;5002021;28;20054;-63
2022/03/28 04:44:59;;;;;;;42.05;12.43;;;;;;;2.51;88.20;102492.41;5004051;28;20045;-62
2022/03/28 04:47:26;;;;;;;38.67;12.73;;;;;;;2.47;88.71;102490.69;4985699;28;20056;-62
2022/03/28 04:49:51;;;;;;;46.55;13.77;;;;;;;2.39;89.15;102490.69;5003714;28;20463;-62
2022/03/28 04:52:16;;;;;;;43.35;13.98;;;;;;;2.27;88.63;102494.25;5003376;28;20042;-63
2022/03/28 04:54:42;;;;;;;36.03;14.35;;;;;;;2.29;88.71;102488.97;5003570;28;20148;-63
2022/03/28 04:57:08;;;;;;;38.30;13.90;;;;;;;2.36;89.09;102490.72;5003751;28;20029;-63
2022/03/28 04:59:34;;;;;;;50.55;15.73;;;;;;;2.42;89.80;102495.97;5003577;28;20053;-63
2022/03/28 05:01:59;;;;;;;46.13;14.95;;;;;;;2.41;89.83;102488.03;5003160;28;20042;-63
2022/03/28 05:04:25;;;;;;;65.10;16.42;;;;;;;2.38;90.25;102488.06;5003906;28;20088;-63
2022/03/28 05:06:53;;;;;;;86.00;16.52;;;;;;;2.33;91.50;102481.06;5003900;28;20694;-63
2022/03/28 05:09:18;;;;;;;98.00;17.45;;;;;;;2.26;91.65;102481.06;5003327;28;20495;-63
2022/03/28 05:11:44;;;;;;;82.90;19.25;;;;;;;2.17;92.51;102473.22;4985645;28;20037;-63
2022/03/28 05:14:12;;;;;;;99.60;18.35;;;;;;;2.20;92.45;102476.69;5002947;28;20807;-63
2022/03/28 05:16:37;;;;;;;91.82;17.20;;;;;;;2.23;93.37;102470.56;5002812;28;20049;-64
2022/03/28 05:19:03;;;;;;;149.60;19.92;;;;;;;2.23;92.81;102473.19;5002320;28;20410;-63
2022/03/28 05:21:29;;;;;;;103.80;18.83;;;;;;;2.24;92.92;102465.28;5002959;28;20116;-63
2022/03/28 05:23:54;;;;;;;84.18;18.20;;;;;;;2.18;92.72;102462.69;5002583;28;20045;-64
2022/03/28 05:26:20;;;;;;;98.22;19.35;;;;;;;2.09;93.14;102467.97;5003351;28;20050;-63
2022/03/28 05:28:45;;;;;;;87.93;17.75;;;;;;;2.14;93.56;102460.06;5001650;28;20046;-63
2022/03/28 05:31:11;;;;;;;96.88;18.17;;;;;;;2.08;93.12;102460.94;4996132;28;20031;-64
2022/03/28 05:33:36;;;;;;;101.88;19.38;;;;;;;2.00;93.01;102462.72;4983966;28;20395;-64
2022/03/28 05:36:02;;;;;;;80.80;18.00;;;;;;;2.13;93.39;102459.19;5001676;28;20064;-64
2022/03/28 05:38:28;;;;;;;136.82;22.35;;;;;;;2.04;93.61;102461.84;4974915;28;20575;-63
2022/03/28 05:40:56;;;;;;;166.82;21.58;;;;;;;2.10;93.53;102468.81;5001037;28;20046;-63
2022/03/28 05:43:21;;;;;;;90.38;20.27;;;;;;;2.09;93.87;102475.84;4999668;28;20092;-63
2022/03/28 05:45:47;;;;;;;85.05;17.70;;;;;;;2.09;93.56;102473.22;4981892;28;20061;-63
2022/03/28 05:48:12;;;;;;;110.50;18.92;;;;;;;2.01;93.17;102472.38;4974641;28;20041;-64
2022/03/28 05:50:37;;;;;;;77.80;20.70;;;;;;;2.02;92.92;102468.88;5001535;28;20042;-63
2022/03/28 05:53:03;;;;;;;99.75;19.10;;;;;;;2.08;92.87;102472.34;5000426;28;20120;-64
2022/03/28 05:55:28;;;;;;;82.35;18.52;;;;;;;2.19;93.01;102474.94;4983715;28;20042;-63
2022/03/28 05:57:54;;;;;;;103.88;20.00;;;;;;;2.09;93.41;102470.59;5001390;28;20037;-63
2022/03/28 06:00:20;;;;;;;98.10;20.02;;;;;;;2.15;92.91;102467.94;5001747;28;20506;-64
2022/03/28 06:02:46;;;;;;;110.72;18.50;;;;;;;2.10;92.45;102472.34;5002091;28;20046;-63
2022/03/28 06:05:12;;;;;;;126.32;19.95;;;;;;;2.04;92.64;102472.34;4983981;28;20838;-63
2022/03/28 06:07:37;;;;;;;114.03;19.02;;;;;;;2.01;92.68;102469.75;5001800;28;20172;-63
2022/03/28 06:10:04;;;;;;;116.28;19.48;;;;;;;2.06;92.60;102474.13;5002418;28;20120;-63
2022/03/28 06:12:29;;;;;;;106.90;19.02;;;;;;;2.08;92.09;102474.09;5002171;28;20049;-63
2022/03/28 06:14:54;;;;;;;128.70;18.77;;;;;;;2.15;92.65;102474.97;5001333;28;20049;-63
2022/03/28 06:17:24;;;;;;;140.27;19.75;;;;;;;2.08;92.22;102484.63;5001074;28;20754;-63
2022/03/28 06:19:50;;;;;;;81.35;18.00;;;;;;;2.22;92.27;102485.47;4999254;28;20395;-64
2022/03/28 06:22:16;;;;;;;106.30;17.50;;;;;;;2.16;91.53;102484.59;5001128;28;20041;-65
2022/03/28 06:24:42;;;;;;;154.27;19.45;;;;;;;2.10;92.14;102482.84;5001120;28;20082;-63
2022/03/28 06:27:08;;;;;;;110.30;18.17;;;;;;;2.07;91.31;102482.88;4983305;28;20033;-63
2022/03/28 06:29:33;;;;;;;97.57;17.98;;;;;;;2.20;91.76;102481.09;4999044;28;20088;-65
2022/03/28 06:31:59;;;;;;;118.95;19.67;;;;;;;2.34;91.94;102471.41;5000759;28;20038;-64
2022/03/28 06:34:24;;;;;;;90.50;18.63;;;;;;;2.50;92.19;102462.56;4998529;28;20042;-64
2022/03/28 06:36:50;;;;;;;84.03;19.63;;;;;;;2.59;91.89;102456.41;4998062;28;20041;-64
2022/03/28 06:39:15;;;;;;;105.05;19.13;;;;;;;2.51;91.77;102445.91;4979208;28;20045;-64
2022/03/28 06:41:41;;;;;;;114.10;20.52;;;;;;;2.59;91.25;102453.75;5002335;28;20048;-63
2022/03/28 06:44:13;;;;;;;83.57;20.67;;;;;;;2.63;90.99;102446.72;5002381;28;20089;-65
2022/03/28 06:46:43;;;;;;;136.18;22.30;;;;;;;2.70;91.91;102451.06;5001031;28;20056;-64
2022/03/28 06:49:09;;;;;;;124.95;19.75;;;;;;;2.60;91.24;102450.25;5001581;28;20163;-65
2022/03/28 06:51:35;;;;;;;86.50;18.25;;;;;;;2.47;91.86;102457.34;4976835;28;20562;-64
2022/03/28 06:54:02;;;;;;;95.55;18.95;;;;;;;2.58;92.26;102459.91;5000965;28;20045;-64
2022/03/28 06:56:28;;;;;;;119.43;20.55;;;;;;;2.60;91.52;102463.41;5001268;28;20038;-64
2022/03/28 06:58:53;;;;;;;121.53;20.77;;;;;;;2.62;91.66;102469.56;5001354;28;20453;-63
2022/03/28 07:01:19;;;;;;;64.20;17.65;;;;;;;2.81;92.18;102463.34;4998585;28;20045;-64
2022/03/28 07:03:45;;;;;;;111.55;19.50;;;;;;;2.83;92.05;102452.78;4998478;28;20042;-64
2022/03/28 07:06:10;;;;;;;136.20;22.30;;;;;;;2.89;91.21;102444.84;4999396;28;20038;-63
2022/03/28 07:08:36;;;;;;;111.72;20.15;;;;;;;3.13;91.34;102448.22;4982449;28;20616;-63
2022/03/28 07:11:02;;;;;;;93.15;18.70;;;;;;;3.34;91.02;102443.66;4982802;28;20038;-63
2022/03/28 07:13:27;;;;;;;81.65;19.05;;;;;;;3.48;89.87;102453.22;4983096;28;20045;-64
2022/03/28 07:15:53;;;;;;;80.70;19.92;;;;;;;3.74;89.15;102447.72;5000499;28;20038;-64
2022/03/28 07:18:19;;;;;;;118.97;20.85;;;;;;;3.64;89.32;102446.94;5000914;28;20470;-63
2022/03/28 07:20:44;;;;;;;95.75;20.05;;;;;;;3.54;89.30;102437.34;4983157;28;20137;-63
2022/03/28 07:23:12;;;;;;;94.20;19.73;;;;;;;3.53;88.94;102444.38;4982951;28;20072;-64
2022/03/28 07:25:37;;;;;;;70.65;17.45;;;;;;;3.90;88.54;102439.63;5000374;28;20056;-63
2022/03/28 07:28:08;;;;;;;94.80;18.02;;;;;;;3.76;88.88;102438.88;5000394;28;20037;-66
2022/03/28 07:30:33;;;;;;;130.13;20.02;;;;;;;3.86;88.73;102434.41;5000193;28;20414;-63
2022/03/28 07:32:59;;;;;;;93.63;18.38;;;;;;;3.75;89.46;102431.88;5000059;28;20050;-64
2022/03/28 07:35:25;;;;;;;122.40;19.73;;;;;;;3.78;89.27;102425.72;4982920;28;20042;-63
2022/03/28 07:37:50;;;;;;;104.30;18.85;;;;;;;4.06;88.81;102423.63;5000838;28;20033;-63
2022/03/28 07:40:16;;;;;;;89.88;19.38;;;;;;;4.18;88.74;102415.59;5000753;28;20050;-63
2022/03/28 07:42:42;;;;;;;96.35;18.88;;;;;;;4.13;89.24;102415.66;5000666;28;20057;-64
2022/03/28 07:45:08;;;;;;;87.55;18.73;;;;;;;4.36;88.37;102423.28;5000396;28;20041;-64
2022/03/28 07:47:35;;;;;;;65.00;16.88;;;;;;;4.54;88.13;102414.28;4999328;28;20044;-63
2022/03/28 07:50:02;;;;;;;95.85;20.15;;;;;;;4.39;87.26;102407.41;5000494;28;20034;-63
2022/03/28 07:52:28;;;;;;;125.05;18.33;;;;;;;4.13;87.95;102413.00;5000566;28;20053;-64
2022/03/28 07:54:53;;;;;;;111.90;20.05;;;;;;;4.28;88.33;102406.69;4999855;28;20174;-63
2022/03/28 07:57:20;;;;;;;83.03;17.70;;;;;;;4.69;86.75;102405.25;4999719;28;20046;-63
2022/03/28 07:59:47;;;;;;;114.25;19.23;;;;;;;4.43;87.99;102410.91;4998901;28;20131;-64
2022/03/28 08:02:13;;;;;;;64.35;16.00;;;;;;;4.96;87.74;102403.97;4999695;28;20505;-64
2022/03/28 08:04:38;;;;;;;51.80;16.58;;;;;;;5.15;85.23;102401.94;5000092;28;20045;-64
2022/03/28 08:07:08;;;;;;;84.55;17.08;;;;;;;4.67;85.93;102397.38;5000223;28;20049;-63
2022/03/28 08:09:41;;;;;;;88.35;17.58;;;;;;;4.76;86.60;102398.97;4999501;28;20057;-63
2022/03/28 08:12:08;;;;;;;61.00;17.88;;;;;;;5.00;85.91;102397.75;4997537;28;20073;-64
2022/03/28 08:14:33;;;;;;;96.28;16.58;;;;;;;4.76;86.23;102393.69;5000376;28;20045;-64
2022/03/28 08:16:59;;;;;;;133.18;18.33;;;;;;;4.58;86.28;102396.63;5002015;28;20042;-63
2022/03/28 08:19:25;;;;;;;88.75;15.85;;;;;;;4.70;86.51;102395.56;5004626;28;20052;-64
2022/03/28 08:21:50;;;;;;;79.85;16.98;;;;;;;4.93;86.51;102398.75;5002545;28;20053;-64
2022/03/28 08:24:16;;;;;;;65.43;17.08;;;;;;;5.33;86.08;102393.72;5004437;28;20041;-63
2022/03/28 08:26:42;;;;;;;54.90;16.05;;;;;;;5.46;86.20;102400.53;5004101;28;20050;-63
2022/03/28 08:29:08;;;;;;;88.28;16.90;;;;;;;5.17;86.05;102397.50;5004740;28;20034;-63
2022/03/28 08:31:33;;;;;;;68.53;16.85;;;;;;;5.33;86.56;102391.06;5004300;28;20042;-63
2022/03/28 08:33:59;;;;;;;70.25;17.23;;;;;;;5.83;84.40;102396.38;5003363;28;20052;-63
2022/03/28 08:36:24;;;;;;;65.05;16.13;;;;;;;5.66;83.84;102388.72;5003376;28;20049;-63
2022/03/28 08:38:50;;;;;;;44.33;15.30;;;;;;;5.72;84.38;102385.97;5003253;28;20057;-64
2022/03/28 08:41:18;;;;;;;33.70;15.65;;;;;;;6.06;83.91;102380.06;5003716;28;20041;-63
2022/03/28 08:43:44;;;;;;;51.85;15.90;;;;;;;6.26;82.31;102382.31;5003934;28;20085;-64
2022/03/28 08:46:10;;;;;;;46.63;14.77;;;;;;;5.45;83.84;102393.50;4986225;28;20044;-63
2022/03/28 08:48:39;;;;;;;63.95;14.38;;;;;;;5.69;84.46;102396.63;5003606;28;20077;-63
2022/03/28 08:51:05;;;;;;;46.90;15.95;;;;;;;6.07;85.77;102384.47;4986436;28;20529;-63
2022/03/28 08:53:31;;;;;;;42.90;15.00;;;;;;;6.39;83.54;102384.69;5001185;28;20053;-63
2022/03/28 08:55:56;;;;;;;40.28;15.30;;;;;;;6.06;83.54;102375.63;5000622;28;20041;-63
2022/03/28 08:58:22;;;;;;;48.67;16.80;;;;;;;6.11;83.80;102381.72;5004093;28;20068;-63
2022/03/28 09:00:47;;;;;;;39.35;15.68;;;;;;;6.97;82.38;102375.41;5003579;28;20623;-63
2022/03/28 09:03:13;;;;;;;31.15;14.60;;;;;;;6.92;83.08;102377.31;5004108;28;20506;-63
2022/03/28 09:05:39;;;;;;;39.28;15.25;;;;;;;6.98;81.23;102376.31;5003717;28;20033;-63
2022/03/28 09:08:07;;;;;;;30.63;15.02;;;;;;;7.06;81.21;102379.63;5003312;28;20041;-63
2022/03/28 09:10:34;;;;;;;38.47;14.80;;;;;;;7.18;81.21;102384.66;5002953;28;20045;-63
2022/03/28 09:13:07;;;;;;;29.55;13.38;;;;;;;6.89;80.71;102377.38;5003134;28;20410;-66
2022/03/28 09:15:51;;;;;;;32.38;14.70;;;;;;;7.32;79.38;102384.28;5001611;28;20064;-63
2022/03/28 09:18:22;;;;;;;35.30;14.07;;;;;;;6.84;80.46;102378.41;5002831;28;20048;-63
2022/03/28 09:20:50;;;;;;;38.85;14.48;;;;;;;6.96;81.34;102378.97;5002011;28;20074;-63
2022/03/28 09:23:38;;;;;;;34.65;14.40;;;;;;;6.78;81.42;102374.13;5002105;28;20557;-64
2022/03/28 09:26:18;;;;;;;27.80;13.68;;;;;;;7.73;78.43;102369.06;5002522;28;20073;-63
2022/03/28 09:28:58;;;;;;;33.00;14.20;;;;;;;7.34;80.06;102366.56;4967940;28;20038;-63
2022/03/28 09:31:42;;;;;;;33.63;13.77;;;;;;;7.50;82.04;102367.03;5003493;28;20569;-63
2022/03/28 09:34:17;;;;;;;40.00;15.82;;;;;;;7.49;80.59;102355.56;5003711;28;20046;-63
2022/03/28 09:36:48;;;;;;;34.58;14.68;;;;;;;7.58;79.99;102348.25;5003029;28;20045;-63
2022/03/28 09:39:18;;;;;;;35.42;14.68;;;;;;;7.32;81.75;102346.28;5000431;28;20038;-62
2022/03/28 09:42:01;;;;;;;34.92;14.13;;;;;;;7.61;80.81;102338.44;5000752;28;20783;-63
2022/03/28 09:44:42;;;;;;;32.33;14.48;;;;;;;7.49;81.42;102339.63;4999772;28;20100;-64
2022/03/28 09:47:17;;;;;;;29.15;14.20;;;;;;;7.94;78.63;102344.59;4996331;28;20046;-64
2022/03/28 09:49:44;;;;;;;39.10;14.57;;;;;;;7.51;81.38;102350.19;4998187;28;20758;-64
2022/03/28 09:52:14;;;;;;;35.95;15.40;;;;;;;7.26;80.63;102349.97;4999618;28;20392;-63
2022/03/28 09:54:56;;;;;;;46.45;15.75;;;;;;;7.28;80.80;102342.84;4991406;28;20038;-64
2022/03/28 09:57:32;;;;;;;32.28;15.25;;;;;;;7.56;81.09;102337.69;4983163;28;20046;-64
2022/03/28 10:00:14;;;;;;;30.63;14.77;;;;;;;8.20;78.31;102335.88;5001158;28;20077;-64
2022/03/28 10:02:40;;;;;;;34.78;14.57;;;;;;;8.05;80.63;102325.69;4982598;28;20508;-63
2022/03/28 10:05:07;;;;;;;29.17;15.10;;;;;;;8.60;77.72;102326.72;5001173;28;20045;-66
2022/03/28 10:07:33;;;;;;;32.88;15.23;;;;;;;8.46;78.79;102321.84;5001151;28;20038;-63
2022/03/28 10:10:00;;;;;;;31.17;15.13;;;;;;;8.29;78.87;102321.47;5000258;28;20050;-64
2022/03/28 10:12:26;;;;;;;32.83;14.82;;;;;;;8.28;77.85;102325.91;4999908;28;20053;-64
2022/03/28 10:14:57;;;;;;;33.25;15.13;;;;;;;8.49;79.19;102318.22;5000093;28;20129;-64
2022/03/28 10:17:27;;;;;;;33.38;14.98;;;;;;;7.77;79.11;102312.31;5000325;28;20309;-64
2022/03/28 10:19:56;;;;;;;36.50;15.65;;;;;;;7.80;78.46;102320.22;5001391;28;20041;-63
2022/03/28 10:22:36;;;;;;;38.72;15.55;;;;;;;8.44;78.20;102313.06;4985200;28;20053;-64
2022/03/28 10:25:09;;;;;;;31.77;15.20;;;;;;;8.83;77.78;102307.38;5001746;28;20085;-65
2022/03/28 10:27:37;;;;;;;37.08;16.55;;;;;;;8.38;76.96;102313.22;4983559;28;20967;-64
2022/03/28 10:30:11;;;;;;;35.53;14.93;;;;;;;8.19;78.27;102302.25;4982244;28;20049;-64
2022/03/28 10:32:37;;;;;;;36.03;15.73;;;;;;;9.12;76.68;102309.06;4999927;28;20044;-64
2022/03/28 10:35:06;;;;;;;32.33;15.80;;;;;;;8.50;78.11;102296.91;4999891;28;20109;-63
2022/03/28 10:37:40;;;;;;;31.85;15.77;;;;;;;8.98;76.57;102293.56;5000158;28;20038;-64
2022/03/28 10:40:12;;;;;;;34.40;16.23;;;;;;;9.14;76.85;102288.63;5001038;28;20030;-64
2022/03/28 10:42:47;;;;;;;31.90;15.68;;;;;;;9.23;74.77;102293.59;4982470;28;20046;-63
2022/03/28 10:45:18;;;;;;;30.25;14.63;;;;;;;9.70;75.52;102288.41;5002825;28;20053;-64
2022/03/28 10:47:55;;;;;;;32.35;16.00;;;;;;;10.04;72.39;102279.13;5002219;28;20157;-64
2022/03/28 10:50:48;;;;;;;27.75;14.57;;;;;;;10.25;72.64;102283.69;5001109;28;20046;-64
2022/03/28 10:53:16;;;;;;;36.63;15.60;;;;;;;10.00;72.99;102275.72;5001029;28;20038;-63
2022/03/28 10:55:53;;;;;;;30.05;15.27;;;;;;;9.55;74.36;102268.53;5000346;28;20121;-62
2022/03/28 10:58:22;;;;;;;31.05;15.30;;;;;;;9.80;73.85;102270.28;5000302;28;20050;-64
2022/03/28 11:01:05;;;;;;;29.08;15.05;;;;;;;9.58;74.54;102270.19;5000074;28;20046;-63
2022/03/28 11:03:50;;;;;;;25.38;13.90;;;;;;;10.50;72.38;102258.72;4998624;28;20073;-63
2022/03/28 11:06:18;;;;;;;28.55;14.70;;;;;;;9.33;75.82;102268.41;4999984;28;20779;-63
2022/03/28 11:09:00;;;;;;;38.20;16.85;;;;;;;10.24;73.83;102263.31;4999642;28;20829;-63
2022/03/28 11:11:32;;;;;;;32.00;15.20;;;;;;;9.52;74.65;102263.28;4999766;28;20050;-68
2022/03/28 11:14:10;;;;;;;32.33;14.90;;;;;;;10.21;74.00;102267.84;4998734;28;20056;-63
2022/03/28 11:16:42;;;;;;;39.22;14.75;;;;;;;10.10;73.81;102261.13;5000153;28;20092;-62
2022/03/28 11:19:31;;;;;;;43.05;16.83;;;;;;;9.53;76.07;102265.03;4998506;28;20046;-64
2022/03/28 11:22:06;;;;;;;35.25;17.08;;;;;;;10.66;73.67;102258.97;4988209;28;20050;-63